sensor_id;sensor_type;location;lat;lon;timestamp;temperature;humidity
22288;DHT22;11312;51.464;6.968;2023-08-06T00:00:22;15.70;99.90
22288;DHT22;11312;51.464;6.968;2023-08-06T00:02:48;15.60;99.90
22288;DHT22;11312;51.464;6.968;2023-08-06T00:05:14;15.60;99.90
22288;DHT22;11312;51.464;6.968;2023-08-06T00:07:44;15.70;99.90
22288;DHT22;11312;51.464;6.968;2023-08-06T00:10:10;15.70;99.90
22288;DHT22;11312;51.464;6.968;2023-08-06T00:12:36;15.60;99.90
22288;DHT22;11312;51.464;6.968;2023-08-06T00:15:01;15.60;99.90
22288;DHT22;11312;51.464;6.968;2023-08-06T00:17:27;15.60;99.90
22288;DHT22;11312;51.464;6.968;2023-08-06T00:19:53;15.70;99.90
22288;DHT22;11312;51.464;6.968;2023-08-06T00:22:18;15.70;99.90
22288;DHT22;11312;51.464;6.968;2023-08-06T00:24:44;15.70;99.90
22288;DHT22;11312;51.464;6.968;2023-08-06T00:27:09;15.80;99.90
22288;DHT22;11312;51.464;6.968;2023-08-06T00:29:35;15.70;99.90
22288;DHT22;11312;51.464;6.968;2023-08-06T00:32:01;15.70;99.90
22288;DHT22;11312;51.464;6.968;2023-08-06T00:34:27;15.70;99.90
22288;DHT22;11312;51.464;6.968;2023-08-06T00:36:52;15.80;99.90
22288;DHT22;11312;51.464;6.968;2023-08-06T00:39:19;15.80;99.90
22288;DHT22;11312;51.464;6.968;2023-08-06T00:41:44;15.80;99.90
22288;DHT22;11312;51.464;6.968;2023-08-06T00:44:10;15.70;99.90
22288;DHT22;11312;51.464;6.968;2023-08-06T00:46:36;15.70;99.90
22288;DHT22;11312;51.464;6.968;2023-08-06T00:49:01;15.70;99.90
22288;DHT22;11312;51.464;6.968;2023-08-06T00:51:27;15.70;99.90
22288;DHT22;11312;51.464;6.968;2023-08-06T00:53:53;15.70;99.90
22288;DHT22;11312;51.464;6.968;2023-08-06T00:56:19;15.70;99.90
22288;DHT22;11312;51.464;6.968;2023-08-06T00:58:46;15.80;99.90
22288;DHT22;11312;51.464;6.968;2023-08-06T01:01:12;15.70;99.90
22288;DHT22;11312;51.464;6.968;2023-08-06T01:03:37;15.70;99.90
22288;DHT22;11312;51.464;6.968;2023-08-06T01:06:03;15.70;99.90
22288;DHT22;11312;51.464;6.968;2023-08-06T01:08:42;15.70;99.90
22288;DHT22;11312;51.464;6.968;2023-08-06T01:13:59;15.60;99.90
22288;DHT22;11312;51.464;6.968;2023-08-06T01:16:28;15.60;99.90
22288;DHT22;11312;51.464;6.968;2023-08-06T01:18:54;15.70;99.90
22288;DHT22;11312;51.464;6.968;2023-08-06T01:21:20;15.70;99.90
22288;DHT22;11312;51.464;6.968;2023-08-06T01:23:47;15.80;99.90
22288;DHT22;11312;51.464;6.968;2023-08-06T01:26:24;15.70;99.90
22288;DHT22;11312;51.464;6.968;2023-08-06T01:29:12;15.70;99.90
22288;DHT22;11312;51.464;6.968;2023-08-06T01:31:43;15.60;99.90
22288;DHT22;11312;51.464;6.968;2023-08-06T01:34:23;15.70;99.90
22288;DHT22;11312;51.464;6.968;2023-08-06T01:36:50;15.60;99.90
22288;DHT22;11312;51.464;6.968;2023-08-06T01:39:16;15.60;99.90
22288;DHT22;11312;51.464;6.968;2023-08-06T01:41:42;15.70;99.90
22288;DHT22;11312;51.464;6.968;2023-08-06T01:44:07;15.70;99.90
22288;DHT22;11312;51.464;6.968;2023-08-06T01:46:33;15.70;99.90
22288;DHT22;11312;51.464;6.968;2023-08-06T01:48:59;15.70;99.90
22288;DHT22;11312;51.464;6.968;2023-08-06T01:51:24;15.70;99.90
22288;DHT22;11312;51.464;6.968;2023-08-06T01:53:50;15.60;99.90
22288;DHT22;11312;51.464;6.968;2023-08-06T01:56:15;15.60;99.90
22288;DHT22;11312;51.464;6.968;2023-08-06T01:58:41;15.70;99.90
22288;DHT22;11312;51.464;6.968;2023-08-06T02:01:06;15.70;99.90
22288;DHT22;11312;51.464;6.968;2023-08-06T02:03:32;15.70;99.90
22288;DHT22;11312;51.464;6.968;2023-08-06T02:05:58;15.70;99.90
22288;DHT22;11312;51.464;6.968;2023-08-06T02:08:23;15.70;99.90
22288;DHT22;11312;51.464;6.968;2023-08-06T02:10:49;15.70;99.90
22288;DHT22;11312;51.464;6.968;2023-08-06T02:13:14;15.80;99.90
22288;DHT22;11312;51.464;6.968;2023-08-06T02:15:44;15.70;99.90
22288;DHT22;11312;51.464;6.968;2023-08-06T02:18:11;15.70;99.90
22288;DHT22;11312;51.464;6.968;2023-08-06T02:20:36;15.80;99.90
22288;DHT22;11312;51.464;6.968;2023-08-06T02:23:02;15.70;99.90
22288;DHT22;11312;51.464;6.968;2023-08-06T02:25:28;15.70;99.90
22288;DHT22;11312;51.464;6.968;2023-08-06T02:27:53;15.60;99.90
22288;DHT22;11312;51.464;6.968;2023-08-06T02:30:19;15.70;99.90
22288;DHT22;11312;51.464;6.968;2023-08-06T02:32:44;15.70;99.90
22288;DHT22;11312;51.464;6.968;2023-08-06T02:35:10;15.60;99.90
22288;DHT22;11312;51.464;6.968;2023-08-06T02:37:36;15.60;99.90
22288;DHT22;11312;51.464;6.968;2023-08-06T02:40:02;15.60;99.90
22288;DHT22;11312;51.464;6.968;2023-08-06T02:42:27;15.60;99.90
22288;DHT22;11312;51.464;6.968;2023-08-06T02:44:53;15.60;99.90
22288;DHT22;11312;51.464;6.968;2023-08-06T02:47:20;15.60;99.90
22288;DHT22;11312;51.464;6.968;2023-08-06T02:49:46;15.60;99.90
22288;DHT22;11312;51.464;6.968;2023-08-06T02:52:12;15.60;99.90
22288;DHT22;11312;51.464;6.968;2023-08-06T02:54:37;15.50;99.90
22288;DHT22;11312;51.464;6.968;2023-08-06T02:57:05;15.50;99.90
22288;DHT22;11312;51.464;6.968;2023-08-06T02:59:31;15.40;99.90
22288;DHT22;11312;51.464;6.968;2023-08-06T03:01:57;15.40;99.90
22288;DHT22;11312;51.464;6.968;2023-08-06T03:04:22;15.40;99.90
22288;DHT22;11312;51.464;6.968;2023-08-06T03:06:51;15.30;99.90
22288;DHT22;11312;51.464;6.968;2023-08-06T03:09:17;15.20;99.90
22288;DHT22;11312;51.464;6.968;2023-08-06T03:11:43;15.20;99.90
22288;DHT22;11312;51.464;6.968;2023-08-06T03:14:09;15.10;99.90
22288;DHT22;11312;51.464;6.968;2023-08-06T03:16:34;15.20;99.90
22288;DHT22;11312;51.464;6.968;2023-08-06T03:19:01;15.10;99.90
22288;DHT22;11312;51.464;6.968;2023-08-06T03:21:27;15.00;99.90
22288;DHT22;11312;51.464;6.968;2023-08-06T03:23:53;15.10;99.90
22288;DHT22;11312;51.464;6.968;2023-08-06T03:26:19;15.00;99.90
22288;DHT22;11312;51.464;6.968;2023-08-06T03:28:44;15.10;99.90
22288;DHT22;11312;51.464;6.968;2023-08-06T03:31:10;15.10;99.90
22288;DHT22;11312;51.464;6.968;2023-08-06T03:33:36;15.20;99.90
22288;DHT22;11312;51.464;6.968;2023-08-06T03:36:02;15.20;99.90
22288;DHT22;11312;51.464;6.968;2023-08-06T03:38:27;15.20;99.90
22288;DHT22;11312;51.464;6.968;2023-08-06T03:40:53;15.20;99.90
22288;DHT22;11312;51.464;6.968;2023-08-06T03:43:19;15.20;99.90
22288;DHT22;11312;51.464;6.968;2023-08-06T03:45:45;15.30;99.90
22288;DHT22;11312;51.464;6.968;2023-08-06T03:48:11;15.20;99.90
22288;DHT22;11312;51.464;6.968;2023-08-06T03:50:36;15.30;99.90
22288;DHT22;11312;51.464;6.968;2023-08-06T03:53:03;15.20;99.90
22288;DHT22;11312;51.464;6.968;2023-08-06T03:55:29;15.20;99.90
22288;DHT22;11312;51.464;6.968;2023-08-06T03:57:54;15.20;99.90
22288;DHT22;11312;51.464;6.968;2023-08-06T04:00:20;15.20;99.90
22288;DHT22;11312;51.464;6.968;2023-08-06T04:02:45;15.30;99.90
22288;DHT22;11312;51.464;6.968;2023-08-06T04:05:11;15.20;99.90
22288;DHT22;11312;51.464;6.968;2023-08-06T04:07:37;15.30;99.90
22288;DHT22;11312;51.464;6.968;2023-08-06T04:10:04;15.30;99.90
22288;DHT22;11312;51.464;6.968;2023-08-06T04:12:30;15.40;99.90
22288;DHT22;11312;51.464;6.968;2023-08-06T04:14:58;15.30;99.90
22288;DHT22;11312;51.464;6.968;2023-08-06T04:17:24;15.30;99.90
22288;DHT22;11312;51.464;6.968;2023-08-06T04:19:54;15.30;99.90
22288;DHT22;11312;51.464;6.968;2023-08-06T04:22:20;15.30;99.90
22288;DHT22;11312;51.464;6.968;2023-08-06T04:24:46;15.30;99.90
22288;DHT22;11312;51.464;6.968;2023-08-06T04:27:13;15.30;99.90
22288;DHT22;11312;51.464;6.968;2023-08-06T04:29:39;15.40;99.90
22288;DHT22;11312;51.464;6.968;2023-08-06T04:32:08;15.40;99.90
22288;DHT22;11312;51.464;6.968;2023-08-06T04:34:34;15.40;99.90
22288;DHT22;11312;51.464;6.968;2023-08-06T04:37:01;15.50;99.90
22288;DHT22;11312;51.464;6.968;2023-08-06T04:39:27;15.40;99.90
22288;DHT22;11312;51.464;6.968;2023-08-06T04:41:53;15.50;99.90
22288;DHT22;11312;51.464;6.968;2023-08-06T04:44:19;15.60;99.90
22288;DHT22;11312;51.464;6.968;2023-08-06T04:46:46;15.50;99.90
22288;DHT22;11312;51.464;6.968;2023-08-06T04:49:11;15.60;99.90
22288;DHT22;11312;51.464;6.968;2023-08-06T04:51:37;15.60;99.90
22288;DHT22;11312;51.464;6.968;2023-08-06T04:54:02;15.70;99.90
22288;DHT22;11312;51.464;6.968;2023-08-06T04:56:28;15.60;99.90
22288;DHT22;11312;51.464;6.968;2023-08-06T04:58:54;15.70;99.90
22288;DHT22;11312;51.464;6.968;2023-08-06T05:01:20;15.70;99.90
22288;DHT22;11312;51.464;6.968;2023-08-06T05:03:47;15.80;99.90
22288;DHT22;11312;51.464;6.968;2023-08-06T05:06:13;15.80;99.90
22288;DHT22;11312;51.464;6.968;2023-08-06T05:08:39;15.90;99.90
22288;DHT22;11312;51.464;6.968;2023-08-06T05:11:05;16.00;99.90
22288;DHT22;11312;51.464;6.968;2023-08-06T05:13:30;16.00;99.90
22288;DHT22;11312;51.464;6.968;2023-08-06T05:15:56;16.00;99.90
22288;DHT22;11312;51.464;6.968;2023-08-06T05:18:22;16.00;99.90
22288;DHT22;11312;51.464;6.968;2023-08-06T05:20:47;16.10;99.90
22288;DHT22;11312;51.464;6.968;2023-08-06T05:23:13;16.10;99.90
22288;DHT22;11312;51.464;6.968;2023-08-06T05:25:39;16.30;99.90
22288;DHT22;11312;51.464;6.968;2023-08-06T05:28:05;16.30;99.90
22288;DHT22;11312;51.464;6.968;2023-08-06T05:30:31;16.40;99.90
22288;DHT22;11312;51.464;6.968;2023-08-06T05:32:56;16.30;99.90
22288;DHT22;11312;51.464;6.968;2023-08-06T05:35:22;16.40;99.90
22288;DHT22;11312;51.464;6.968;2023-08-06T05:37:49;16.50;99.90
22288;DHT22;11312;51.464;6.968;2023-08-06T05:40:15;16.30;99.90
22288;DHT22;11312;51.464;6.968;2023-08-06T05:42:41;16.30;99.90
22288;DHT22;11312;51.464;6.968;2023-08-06T05:45:07;16.40;99.90
22288;DHT22;11312;51.464;6.968;2023-08-06T05:47:33;16.30;99.90
22288;DHT22;11312;51.464;6.968;2023-08-06T05:49:59;16.30;99.90
22288;DHT22;11312;51.464;6.968;2023-08-06T05:52:24;16.30;99.90
22288;DHT22;11312;51.464;6.968;2023-08-06T05:54:50;16.40;99.90
22288;DHT22;11312;51.464;6.968;2023-08-06T05:57:16;16.40;99.90
22288;DHT22;11312;51.464;6.968;2023-08-06T05:59:42;16.40;99.90
22288;DHT22;11312;51.464;6.968;2023-08-06T06:02:08;16.40;99.90
22288;DHT22;11312;51.464;6.968;2023-08-06T06:04:34;16.50;99.90
22288;DHT22;11312;51.464;6.968;2023-08-06T06:06:59;16.50;99.90
22288;DHT22;11312;51.464;6.968;2023-08-06T06:09:25;16.40;99.90
22288;DHT22;11312;51.464;6.968;2023-08-06T06:11:51;16.50;99.90
22288;DHT22;11312;51.464;6.968;2023-08-06T06:14:17;16.60;99.90
22288;DHT22;11312;51.464;6.968;2023-08-06T06:16:43;16.60;99.90
22288;DHT22;11312;51.464;6.968;2023-08-06T06:19:09;16.70;99.90
22288;DHT22;11312;51.464;6.968;2023-08-06T06:21:34;16.70;99.90
22288;DHT22;11312;51.464;6.968;2023-08-06T06:24:00;16.80;99.90
22288;DHT22;11312;51.464;6.968;2023-08-06T06:26:26;16.80;99.90
22288;DHT22;11312;51.464;6.968;2023-08-06T06:28:51;16.90;99.90
22288;DHT22;11312;51.464;6.968;2023-08-06T06:31:17;17.10;99.90
22288;DHT22;11312;51.464;6.968;2023-08-06T06:33:42;17.10;99.90
22288;DHT22;11312;51.464;6.968;2023-08-06T06:36:08;17.20;99.90
22288;DHT22;11312;51.464;6.968;2023-08-06T06:38:35;17.30;99.90
22288;DHT22;11312;51.464;6.968;2023-08-06T06:41:01;17.50;99.90
22288;DHT22;11312;51.464;6.968;2023-08-06T06:43:28;17.40;99.90
22288;DHT22;11312;51.464;6.968;2023-08-06T06:45:58;17.50;99.90
22288;DHT22;11312;51.464;6.968;2023-08-06T06:48:28;17.60;99.90
22288;DHT22;11312;51.464;6.968;2023-08-06T06:50:54;17.60;99.90
22288;DHT22;11312;51.464;6.968;2023-08-06T06:53:20;17.40;99.90
22288;DHT22;11312;51.464;6.968;2023-08-06T06:55:46;17.50;99.90
22288;DHT22;11312;51.464;6.968;2023-08-06T06:58:15;17.70;99.90
22288;DHT22;11312;51.464;6.968;2023-08-06T07:00:42;18.10;99.90
22288;DHT22;11312;51.464;6.968;2023-08-06T07:03:07;17.80;99.90
22288;DHT22;11312;51.464;6.968;2023-08-06T07:05:33;17.90;99.90
22288;DHT22;11312;51.464;6.968;2023-08-06T07:07:59;17.90;99.90
22288;DHT22;11312;51.464;6.968;2023-08-06T07:10:25;18.20;99.90
22288;DHT22;11312;51.464;6.968;2023-08-06T07:12:51;18.30;99.90
22288;DHT22;11312;51.464;6.968;2023-08-06T07:15:16;18.50;99.90
22288;DHT22;11312;51.464;6.968;2023-08-06T07:17:43;18.50;99.90
22288;DHT22;11312;51.464;6.968;2023-08-06T07:20:09;18.40;99.90
22288;DHT22;11312;51.464;6.968;2023-08-06T07:22:35;18.30;99.90
22288;DHT22;11312;51.464;6.968;2023-08-06T07:25:01;18.00;99.90
22288;DHT22;11312;51.464;6.968;2023-08-06T07:27:26;17.90;99.90
22288;DHT22;11312;51.464;6.968;2023-08-06T07:29:52;18.00;99.90
22288;DHT22;11312;51.464;6.968;2023-08-06T07:32:18;18.20;99.90
22288;DHT22;11312;51.464;6.968;2023-08-06T07:34:43;18.10;99.90
22288;DHT22;11312;51.464;6.968;2023-08-06T07:37:09;18.20;99.90
22288;DHT22;11312;51.464;6.968;2023-08-06T07:39:35;18.40;99.90
22288;DHT22;11312;51.464;6.968;2023-08-06T07:42:03;18.70;99.90
22288;DHT22;11312;51.464;6.968;2023-08-06T07:44:31;18.80;99.90
22288;DHT22;11312;51.464;6.968;2023-08-06T07:46:56;19.00;99.90
22288;DHT22;11312;51.464;6.968;2023-08-06T07:49:22;19.20;99.90
22288;DHT22;11312;51.464;6.968;2023-08-06T07:51:49;19.10;99.90
22288;DHT22;11312;51.464;6.968;2023-08-06T07:54:14;19.20;99.90
22288;DHT22;11312;51.464;6.968;2023-08-06T07:56:40;18.90;99.90
22288;DHT22;11312;51.464;6.968;2023-08-06T07:59:06;18.90;99.90
22288;DHT22;11312;51.464;6.968;2023-08-06T08:01:31;19.20;99.90
22288;DHT22;11312;51.464;6.968;2023-08-06T08:03:57;19.20;99.90
22288;DHT22;11312;51.464;6.968;2023-08-06T08:06:22;19.50;99.90
22288;DHT22;11312;51.464;6.968;2023-08-06T08:08:48;19.30;99.90
22288;DHT22;11312;51.464;6.968;2023-08-06T08:11:14;19.70;99.90
22288;DHT22;11312;51.464;6.968;2023-08-06T08:13:41;19.70;99.90
22288;DHT22;11312;51.464;6.968;2023-08-06T08:16:07;19.70;99.90
22288;DHT22;11312;51.464;6.968;2023-08-06T08:18:33;19.50;99.90
22288;DHT22;11312;51.464;6.968;2023-08-06T08:20:58;19.80;99.90
22288;DHT22;11312;51.464;6.968;2023-08-06T08:23:24;19.80;99.90
22288;DHT22;11312;51.464;6.968;2023-08-06T08:25:50;19.80;99.90
22288;DHT22;11312;51.464;6.968;2023-08-06T08:28:16;19.60;99.90
22288;DHT22;11312;51.464;6.968;2023-08-06T08:30:42;19.70;99.90
22288;DHT22;11312;51.464;6.968;2023-08-06T08:33:07;19.80;99.90
22288;DHT22;11312;51.464;6.968;2023-08-06T08:35:34;19.60;99.90
22288;DHT22;11312;51.464;6.968;2023-08-06T08:37:59;19.70;99.90
22288;DHT22;11312;51.464;6.968;2023-08-06T08:40:32;19.60;99.90
22288;DHT22;11312;51.464;6.968;2023-08-06T08:42:59;19.50;99.90
22288;DHT22;11312;51.464;6.968;2023-08-06T08:45:28;19.70;99.90
22288;DHT22;11312;51.464;6.968;2023-08-06T08:47:54;20.30;99.90
22288;DHT22;11312;51.464;6.968;2023-08-06T08:50:21;21.00;99.90
22288;DHT22;11312;51.464;6.968;2023-08-06T08:52:47;20.60;99.90
22288;DHT22;11312;51.464;6.968;2023-08-06T08:55:16;20.80;99.90
22288;DHT22;11312;51.464;6.968;2023-08-06T08:57:42;20.40;99.90
22288;DHT22;11312;51.464;6.968;2023-08-06T09:00:08;20.50;99.90
22288;DHT22;11312;51.464;6.968;2023-08-06T09:02:34;20.40;99.90
22288;DHT22;11312;51.464;6.968;2023-08-06T09:05:01;20.50;99.90
22288;DHT22;11312;51.464;6.968;2023-08-06T09:07:44;20.10;99.90
22288;DHT22;11312;51.464;6.968;2023-08-06T09:10:13;20.20;99.90
22288;DHT22;11312;51.464;6.968;2023-08-06T09:12:43;20.00;99.90
22288;DHT22;11312;51.464;6.968;2023-08-06T09:15:10;19.70;99.90
22288;DHT22;11312;51.464;6.968;2023-08-06T09:17:36;19.50;99.90
22288;DHT22;11312;51.464;6.968;2023-08-06T09:20:13;19.30;99.90
22288;DHT22;11312;51.464;6.968;2023-08-06T09:22:39;19.20;99.90
22288;DHT22;11312;51.464;6.968;2023-08-06T09:25:07;19.20;99.90
22288;DHT22;11312;51.464;6.968;2023-08-06T09:27:36;19.10;99.90
22288;DHT22;11312;51.464;6.968;2023-08-06T09:30:03;19.00;99.90
22288;DHT22;11312;51.464;6.968;2023-08-06T09:32:47;19.00;99.90
22288;DHT22;11312;51.464;6.968;2023-08-06T09:35:16;19.10;99.90
22288;DHT22;11312;51.464;6.968;2023-08-06T09:37:42;18.90;99.90
22288;DHT22;11312;51.464;6.968;2023-08-06T09:40:28;18.80;99.90
22288;DHT22;11312;51.464;6.968;2023-08-06T09:42:54;19.00;99.90
22288;DHT22;11312;51.464;6.968;2023-08-06T09:45:20;18.90;99.90
22288;DHT22;11312;51.464;6.968;2023-08-06T09:47:48;19.00;99.90
22288;DHT22;11312;51.464;6.968;2023-08-06T09:50:18;19.30;99.90
22288;DHT22;11312;51.464;6.968;2023-08-06T09:52:44;19.80;99.90
22288;DHT22;11312;51.464;6.968;2023-08-06T09:55:14;19.90;99.90
22288;DHT22;11312;51.464;6.968;2023-08-06T09:57:42;19.90;99.90
22288;DHT22;11312;51.464;6.968;2023-08-06T10:00:10;20.00;99.90
22288;DHT22;11312;51.464;6.968;2023-08-06T10:02:40;19.80;99.90
22288;DHT22;11312;51.464;6.968;2023-08-06T10:05:09;19.70;99.90
22288;DHT22;11312;51.464;6.968;2023-08-06T10:07:35;19.80;99.90
22288;DHT22;11312;51.464;6.968;2023-08-06T10:10:02;19.80;99.90
22288;DHT22;11312;51.464;6.968;2023-08-06T10:12:30;19.80;99.90
22288;DHT22;11312;51.464;6.968;2023-08-06T10:14:59;19.90;99.90
22288;DHT22;11312;51.464;6.968;2023-08-06T10:17:26;20.10;99.90
22288;DHT22;11312;51.464;6.968;2023-08-06T10:19:53;20.30;99.90
22288;DHT22;11312;51.464;6.968;2023-08-06T10:22:20;21.90;99.90
22288;DHT22;11312;51.464;6.968;2023-08-06T10:24:51;22.80;99.90
22288;DHT22;11312;51.464;6.968;2023-08-06T10:27:29;23.60;99.90
22288;DHT22;11312;51.464;6.968;2023-08-06T10:29:56;22.70;99.90
22288;DHT22;11312;51.464;6.968;2023-08-06T10:32:49;23.10;99.90
22288;DHT22;11312;51.464;6.968;2023-08-06T10:35:47;22.70;99.90
22288;DHT22;11312;51.464;6.968;2023-08-06T10:38:21;22.10;99.90
22288;DHT22;11312;51.464;6.968;2023-08-06T10:43:33;21.20;99.90
22288;DHT22;11312;51.464;6.968;2023-08-06T10:46:03;20.90;99.90
22288;DHT22;11312;51.464;6.968;2023-08-06T10:48:39;20.70;99.90
22288;DHT22;11312;51.464;6.968;2023-08-06T10:51:10;20.60;99.90
22288;DHT22;11312;51.464;6.968;2023-08-06T10:53:36;20.60;99.90
22288;DHT22;11312;51.464;6.968;2023-08-06T10:56:18;20.60;99.90
22288;DHT22;11312;51.464;6.968;2023-08-06T10:58:45;20.70;99.90
22288;DHT22;11312;51.464;6.968;2023-08-06T11:01:11;20.90;99.90
22288;DHT22;11312;51.464;6.968;2023-08-06T11:03:37;21.00;99.90
22288;DHT22;11312;51.464;6.968;2023-08-06T11:06:04;21.00;99.90
22288;DHT22;11312;51.464;6.968;2023-08-06T11:08:38;21.40;99.90
22288;DHT22;11312;51.464;6.968;2023-08-06T11:11:10;21.20;99.90
22288;DHT22;11312;51.464;6.968;2023-08-06T11:13:48;21.20;99.90
22288;DHT22;11312;51.464;6.968;2023-08-06T11:16:16;21.10;99.90
22288;DHT22;11312;51.464;6.968;2023-08-06T11:18:42;21.00;99.90
22288;DHT22;11312;51.464;6.968;2023-08-06T11:21:08;20.50;99.90
22288;DHT22;11312;51.464;6.968;2023-08-06T11:23:35;20.40;99.90
22288;DHT22;11312;51.464;6.968;2023-08-06T11:26:01;20.30;99.90
22288;DHT22;11312;51.464;6.968;2023-08-06T11:28:27;20.30;99.90
22288;DHT22;11312;51.464;6.968;2023-08-06T11:30:53;20.10;99.90
22288;DHT22;11312;51.464;6.968;2023-08-06T11:33:23;19.30;99.90
22288;DHT22;11312;51.464;6.968;2023-08-06T11:35:51;19.10;99.90
22288;DHT22;11312;51.464;6.968;2023-08-06T11:38:17;18.10;99.90
22288;DHT22;11312;51.464;6.968;2023-08-06T11:40:47;17.90;99.90
22288;DHT22;11312;51.464;6.968;2023-08-06T11:43:14;18.00;99.90
22288;DHT22;11312;51.464;6.968;2023-08-06T11:45:40;17.80;99.90
22288;DHT22;11312;51.464;6.968;2023-08-06T11:48:06;17.70;99.90
22288;DHT22;11312;51.464;6.968;2023-08-06T11:50:35;17.50;99.90
22288;DHT22;11312;51.464;6.968;2023-08-06T11:53:01;17.70;99.90
22288;DHT22;11312;51.464;6.968;2023-08-06T11:55:28;17.50;99.90
22288;DHT22;11312;51.464;6.968;2023-08-06T11:57:54;17.40;99.90
22288;DHT22;11312;51.464;6.968;2023-08-06T12:00:23;17.40;99.90
22288;DHT22;11312;51.464;6.968;2023-08-06T12:02:49;17.10;99.90
22288;DHT22;11312;51.464;6.968;2023-08-06T12:05:18;16.90;99.90
22288;DHT22;11312;51.464;6.968;2023-08-06T12:07:54;17.00;99.90
22288;DHT22;11312;51.464;6.968;2023-08-06T12:10:22;16.90;99.90
22288;DHT22;11312;51.464;6.968;2023-08-06T12:12:49;16.80;99.90
22288;DHT22;11312;51.464;6.968;2023-08-06T12:15:16;16.80;99.90
22288;DHT22;11312;51.464;6.968;2023-08-06T12:17:42;16.60;99.90
22288;DHT22;11312;51.464;6.968;2023-08-06T12:20:08;16.50;99.90
22288;DHT22;11312;51.464;6.968;2023-08-06T12:22:35;16.30;99.90
22288;DHT22;11312;51.464;6.968;2023-08-06T12:25:02;16.20;99.90
22288;DHT22;11312;51.464;6.968;2023-08-06T12:27:44;16.40;99.90
22288;DHT22;11312;51.464;6.968;2023-08-06T12:30:12;16.30;99.90
22288;DHT22;11312;51.464;6.968;2023-08-06T12:32:38;16.50;99.90
22288;DHT22;11312;51.464;6.968;2023-08-06T12:35:05;16.50;99.90
22288;DHT22;11312;51.464;6.968;2023-08-06T12:37:32;16.50;99.90
22288;DHT22;11312;51.464;6.968;2023-08-06T12:39:58;16.80;99.90
22288;DHT22;11312;51.464;6.968;2023-08-06T12:42:24;16.50;99.90
22288;DHT22;11312;51.464;6.968;2023-08-06T12:44:49;16.50;99.90
22288;DHT22;11312;51.464;6.968;2023-08-06T12:47:16;16.50;99.90
22288;DHT22;11312;51.464;6.968;2023-08-06T12:49:42;16.50;99.90
22288;DHT22;11312;51.464;6.968;2023-08-06T12:52:07;16.70;99.90
22288;DHT22;11312;51.464;6.968;2023-08-06T12:54:34;16.70;99.90
22288;DHT22;11312;51.464;6.968;2023-08-06T12:57:02;16.70;99.90
22288;DHT22;11312;51.464;6.968;2023-08-06T12:59:28;16.70;99.90
22288;DHT22;11312;51.464;6.968;2023-08-06T13:01:54;16.40;99.90
22288;DHT22;11312;51.464;6.968;2023-08-06T13:04:19;16.60;99.90
22288;DHT22;11312;51.464;6.968;2023-08-06T13:06:45;16.60;99.90
22288;DHT22;11312;51.464;6.968;2023-08-06T13:09:12;16.60;99.90
22288;DHT22;11312;51.464;6.968;2023-08-06T13:11:39;16.70;99.90
22288;DHT22;11312;51.464;6.968;2023-08-06T13:14:06;16.50;99.90
22288;DHT22;11312;51.464;6.968;2023-08-06T13:16:33;16.40;99.90
22288;DHT22;11312;51.464;6.968;2023-08-06T13:18:59;16.40;99.90
22288;DHT22;11312;51.464;6.968;2023-08-06T13:21:30;16.30;99.90
22288;DHT22;11312;51.464;6.968;2023-08-06T13:23:56;16.40;99.90
22288;DHT22;11312;51.464;6.968;2023-08-06T13:26:22;16.50;99.90
22288;DHT22;11312;51.464;6.968;2023-08-06T13:28:47;16.40;99.90
22288;DHT22;11312;51.464;6.968;2023-08-06T13:31:14;16.40;99.90
22288;DHT22;11312;51.464;6.968;2023-08-06T13:33:40;16.60;99.90
22288;DHT22;11312;51.464;6.968;2023-08-06T13:36:06;16.50;99.90
22288;DHT22;11312;51.464;6.968;2023-08-06T13:38:31;16.60;99.90
22288;DHT22;11312;51.464;6.968;2023-08-06T13:40:57;16.70;99.90
22288;DHT22;11312;51.464;6.968;2023-08-06T13:43:24;16.70;99.90
22288;DHT22;11312;51.464;6.968;2023-08-06T13:45:49;16.50;99.90
22288;DHT22;11312;51.464;6.968;2023-08-06T13:48:15;16.60;99.90
22288;DHT22;11312;51.464;6.968;2023-08-06T13:50:40;16.50;99.90
22288;DHT22;11312;51.464;6.968;2023-08-06T13:53:06;16.30;99.90
22288;DHT22;11312;51.464;6.968;2023-08-06T13:55:32;16.50;99.90
22288;DHT22;11312;51.464;6.968;2023-08-06T13:57:57;16.70;99.90
22288;DHT22;11312;51.464;6.968;2023-08-06T14:00:23;16.70;99.90
22288;DHT22;11312;51.464;6.968;2023-08-06T14:02:48;16.70;99.90
22288;DHT22;11312;51.464;6.968;2023-08-06T14:05:14;16.60;99.90
22288;DHT22;11312;51.464;6.968;2023-08-06T14:07:40;16.80;99.90
22288;DHT22;11312;51.464;6.968;2023-08-06T14:10:06;16.60;99.90
22288;DHT22;11312;51.464;6.968;2023-08-06T14:12:32;16.70;99.90
22288;DHT22;11312;51.464;6.968;2023-08-06T14:14:59;16.70;99.90
22288;DHT22;11312;51.464;6.968;2023-08-06T14:17:24;16.80;99.90
22288;DHT22;11312;51.464;6.968;2023-08-06T14:19:50;16.90;99.90
22288;DHT22;11312;51.464;6.968;2023-08-06T14:22:16;17.00;99.90
22288;DHT22;11312;51.464;6.968;2023-08-06T14:24:41;17.00;99.90
22288;DHT22;11312;51.464;6.968;2023-08-06T14:27:07;17.00;99.90
22288;DHT22;11312;51.464;6.968;2023-08-06T14:29:33;16.90;99.90
22288;DHT22;11312;51.464;6.968;2023-08-06T14:31:58;17.00;99.90
22288;DHT22;11312;51.464;6.968;2023-08-06T14:34:24;17.10;99.90
22288;DHT22;11312;51.464;6.968;2023-08-06T14:36:49;16.80;99.90
22288;DHT22;11312;51.464;6.968;2023-08-06T14:39:15;17.00;99.90
22288;DHT22;11312;51.464;6.968;2023-08-06T14:41:41;16.90;99.90
22288;DHT22;11312;51.464;6.968;2023-08-06T14:44:06;16.70;99.90
22288;DHT22;11312;51.464;6.968;2023-08-06T14:46:33;16.60;99.90
22288;DHT22;11312;51.464;6.968;2023-08-06T14:48:58;16.70;99.90
22288;DHT22;11312;51.464;6.968;2023-08-06T14:51:24;16.90;99.90
22288;DHT22;11312;51.464;6.968;2023-08-06T14:53:50;16.90;99.90
22288;DHT22;11312;51.464;6.968;2023-08-06T14:56:15;16.90;99.90
22288;DHT22;11312;51.464;6.968;2023-08-06T14:58:41;16.80;99.90
22288;DHT22;11312;51.464;6.968;2023-08-06T15:01:07;17.00;99.90
22288;DHT22;11312;51.464;6.968;2023-08-06T15:03:33;16.90;99.90
22288;DHT22;11312;51.464;6.968;2023-08-06T15:05:59;16.80;99.90
22288;DHT22;11312;51.464;6.968;2023-08-06T15:08:25;16.70;99.90
22288;DHT22;11312;51.464;6.968;2023-08-06T15:10:51;16.70;99.90
22288;DHT22;11312;51.464;6.968;2023-08-06T15:13:18;16.70;99.90
22288;DHT22;11312;51.464;6.968;2023-08-06T15:15:46;16.50;99.90
22288;DHT22;11312;51.464;6.968;2023-08-06T15:18:12;16.60;99.90
22288;DHT22;11312;51.464;6.968;2023-08-06T15:20:38;16.60;99.90
22288;DHT22;11312;51.464;6.968;2023-08-06T15:23:04;16.70;99.90
22288;DHT22;11312;51.464;6.968;2023-08-06T15:25:29;16.60;99.90
22288;DHT22;11312;51.464;6.968;2023-08-06T15:27:55;16.50;99.90
22288;DHT22;11312;51.464;6.968;2023-08-06T15:30:20;16.70;99.90
22288;DHT22;11312;51.464;6.968;2023-08-06T15:32:47;16.70;99.90